createdAt,value
2023-03-08T00:00:37.284Z,8.16
2023-03-08T00:03:04.883Z,8.10
2023-03-08T00:05:32.343Z,8.03
2023-03-08T00:07:59.688Z,7.95
2023-03-08T00:10:27.309Z,7.76
2023-03-08T00:12:54.624Z,7.79
2023-03-08T00:15:22.262Z,7.76
2023-03-08T00:17:50.427Z,7.70
2023-03-08T00:20:17.848Z,7.56
2023-03-08T00:22:45.300Z,7.60
2023-03-08T00:25:16.350Z,7.62
2023-03-08T00:27:43.766Z,7.57
2023-03-08T00:30:12.164Z,7.46
2023-03-08T00:32:39.975Z,7.48
2023-03-08T00:35:08.076Z,7.53
2023-03-08T00:37:35.474Z,7.51
2023-03-08T00:40:03.977Z,7.06
2023-03-08T00:42:31.390Z,7.13
2023-03-08T00:44:59.290Z,7.15
2023-03-08T00:47:28.402Z,7.13
2023-03-08T00:49:55.754Z,7.36
2023-03-08T00:52:23.096Z,7.26
2023-03-08T00:54:50.770Z,6.86
2023-03-08T00:57:18.231Z,6.73
2023-03-08T00:59:45.682Z,6.22
2023-03-08T01:02:13.611Z,6.50
2023-03-08T01:04:40.995Z,6.69
2023-03-08T01:07:08.404Z,6.63
2023-03-08T01:09:38.534Z,6.71
2023-03-08T01:12:06.906Z,6.33
2023-03-08T01:14:34.240Z,6.47
2023-03-08T01:17:01.920Z,6.75
2023-03-08T01:19:29.833Z,6.68
2023-03-08T01:21:58.492Z,6.65
2023-03-08T01:24:26.149Z,6.45
2023-03-08T01:26:55.771Z,6.66
2023-03-08T01:29:23.166Z,6.59
2023-03-08T01:31:50.838Z,6.46
2023-03-08T01:34:18.281Z,6.51
2023-03-08T01:36:45.687Z,6.40
2023-03-08T01:39:13.335Z,6.56
2023-03-08T01:41:40.733Z,6.61
2023-03-08T01:44:15.253Z,6.64
2023-03-08T01:46:43.681Z,6.73
2023-03-08T01:49:20.771Z,6.77
2023-03-08T01:52:11.571Z,6.89
2023-03-08T01:54:58.904Z,6.88
2023-03-08T01:57:40.793Z,6.93
2023-03-08T02:00:11.405Z,6.84
2023-03-08T02:02:50.022Z,7.12
2023-03-08T02:05:18.530Z,7.11
2023-03-08T02:07:46.806Z,7.16
2023-03-08T02:10:14.637Z,7.22
2023-03-08T02:12:42.674Z,7.26
2023-03-08T02:15:14.121Z,7.51
2023-03-08T02:17:43.251Z,7.70
2023-03-08T02:20:16.578Z,7.63
2023-03-08T02:22:46.626Z,7.49
2023-03-08T02:25:16.606Z,7.57
2023-03-08T02:27:44.396Z,7.63
2023-03-08T02:30:14.146Z,7.66
2023-03-08T02:32:41.899Z,7.74
2023-03-08T02:35:09.808Z,7.78
2023-03-08T02:37:37.176Z,7.70
2023-03-08T02:40:05.400Z,7.56
2023-03-08T02:42:33.241Z,7.58
2023-03-08T02:45:00.614Z,7.73
2023-03-08T02:47:28.250Z,7.72
2023-03-08T02:49:55.632Z,7.73
2023-03-08T02:52:23.568Z,7.68
2023-03-08T02:54:51.502Z,7.73
2023-03-08T02:57:19.950Z,7.76
2023-03-08T02:59:47.335Z,7.63
2023-03-08T03:02:15.553Z,7.67
2023-03-08T03:04:42.990Z,7.69
2023-03-08T03:07:10.433Z,7.90
2023-03-08T03:09:38.584Z,7.78
2023-03-08T03:12:06.214Z,7.80
2023-03-08T03:14:34.420Z,7.83
2023-03-08T03:17:02.511Z,7.75
2023-03-08T03:19:29.985Z,7.70
2023-03-08T03:21:57.577Z,7.57
2023-03-08T03:24:25.364Z,7.73
2023-03-08T03:26:53.040Z,7.77
2023-03-08T03:29:20.858Z,7.83
2023-03-08T03:31:49.842Z,7.81
2023-03-08T03:34:17.348Z,7.71
2023-03-08T03:36:45.353Z,7.68
2023-03-08T03:39:13.013Z,7.78
2023-03-08T03:41:40.705Z,7.81
2023-03-08T03:44:08.213Z,7.73
2023-03-08T03:46:36.064Z,7.81
2023-03-08T03:49:04.282Z,7.43
2023-03-08T03:51:32.499Z,7.32
2023-03-08T03:54:00.946Z,7.17
2023-03-08T03:56:29.182Z,7.12
2023-03-08T03:58:57.094Z,6.96
2023-03-08T04:01:28.027Z,7.17
2023-03-08T04:03:57.525Z,7.22
2023-03-08T04:06:28.089Z,7.29
2023-03-08T04:09:06.775Z,7.38
2023-03-08T04:11:39.040Z,7.33
2023-03-08T04:14:07.681Z,7.41
2023-03-08T04:16:37.307Z,7.40
2023-03-08T04:19:07.737Z,7.43
2023-03-08T04:21:35.577Z,7.46
2023-03-08T04:24:03.575Z,7.53
2023-03-08T04:26:31.411Z,7.46
2023-03-08T04:29:00.020Z,7.48
2023-03-08T04:31:29.536Z,7.50
2023-03-08T04:34:00.791Z,7.49
2023-03-08T04:36:28.990Z,7.58
2023-03-08T04:38:57.521Z,7.25
2023-03-08T04:41:25.768Z,7.28
2023-03-08T04:43:56.021Z,7.26
2023-03-08T04:46:26.839Z,7.39
2023-03-08T04:48:55.909Z,7.48
2023-03-08T04:51:25.564Z,7.51
2023-03-08T04:53:53.818Z,7.45
2023-03-08T04:56:21.791Z,7.50
2023-03-08T04:58:49.468Z,7.50
2023-03-08T05:01:23.129Z,7.46
2023-03-08T05:03:52.875Z,7.45
2023-03-08T05:06:23.529Z,7.47
2023-03-08T05:08:51.310Z,7.59
2023-03-08T05:11:21.858Z,7.49
2023-03-08T05:13:49.765Z,7.53
2023-03-08T05:16:17.923Z,7.49
2023-03-08T05:18:45.909Z,7.61
2023-03-08T05:21:16.219Z,7.46
2023-03-08T05:23:44.374Z,7.67
2023-03-08T05:26:14.697Z,7.58
2023-03-08T05:28:42.189Z,7.34
2023-03-08T05:31:15.806Z,7.32
2023-03-08T05:33:46.425Z,7.49
2023-03-08T05:36:15.167Z,7.44
2023-03-08T05:38:42.974Z,7.52
2023-03-08T05:41:16.026Z,7.38
2023-03-08T05:43:44.524Z,7.44
2023-03-08T05:46:17.231Z,7.41
2023-03-08T05:48:45.290Z,7.49
2023-03-08T05:51:15.837Z,7.39
2023-03-08T05:53:44.184Z,7.40
2023-03-08T05:56:14.781Z,7.50
2023-03-08T05:58:44.726Z,7.47
2023-03-08T06:01:17.160Z,7.57
2023-03-08T06:03:46.143Z,7.56
2023-03-08T06:06:14.620Z,7.68
2023-03-08T06:08:42.572Z,7.57
2023-03-08T06:11:10.901Z,7.69
2023-03-08T06:13:38.576Z,7.74
2023-03-08T06:16:06.777Z,7.73
2023-03-08T06:18:39.962Z,7.89
2023-03-08T06:21:08.951Z,7.91
2023-03-08T06:23:38.448Z,7.98
2023-03-08T06:26:07.161Z,8.05
2023-03-08T06:28:35.789Z,8.07
2023-03-08T06:31:03.940Z,8.25
2023-03-08T06:33:32.981Z,8.28
2023-03-08T06:36:11.517Z,8.41
2023-03-08T06:38:40.527Z,8.55
2023-03-08T06:41:08.855Z,8.63
2023-03-08T06:43:36.678Z,8.70
2023-03-08T06:46:12.445Z,8.85
2023-03-08T06:48:40.737Z,8.87
2023-03-08T06:51:08.831Z,8.92
2023-03-08T06:53:38.147Z,8.97
2023-03-08T06:56:07.780Z,8.76
2023-03-08T06:58:36.515Z,8.97
2023-03-08T07:01:05.603Z,9.03
2023-03-08T07:03:33.540Z,8.95
2023-03-08T07:06:03.231Z,9.19
2023-03-08T07:08:31.163Z,9.20
2023-03-08T07:10:59.369Z,9.27
2023-03-08T07:13:28.970Z,9.33
2023-03-08T07:15:57.184Z,9.52
2023-03-08T07:18:25.258Z,9.75
2023-03-08T07:20:55.213Z,9.81
2023-03-08T07:23:22.917Z,9.97
2023-03-08T07:25:50.581Z,9.99
2023-03-08T07:28:18.376Z,10.09
2023-03-08T07:30:50.736Z,10.19
2023-03-08T07:33:20.391Z,10.53
2023-03-08T07:35:48.027Z,10.65
2023-03-08T07:38:16.213Z,10.81
2023-03-08T07:40:44.253Z,11.02
2023-03-08T07:43:11.924Z,11.08
2023-03-08T07:45:43.290Z,11.03
2023-03-08T07:48:11.087Z,10.94
2023-03-08T07:50:38.446Z,11.14
2023-03-08T07:53:07.790Z,11.29
2023-03-08T07:55:37.132Z,11.24
2023-03-08T07:58:04.708Z,11.26
2023-03-08T08:00:32.099Z,11.51
2023-03-08T08:02:59.907Z,11.40
2023-03-08T08:05:27.537Z,11.53
2023-03-08T08:07:55.397Z,11.58
2023-03-08T08:10:23.087Z,11.52
2023-03-08T08:12:50.632Z,11.50
2023-03-08T08:15:19.172Z,11.44
2023-03-08T08:17:46.836Z,11.65
2023-03-08T08:20:14.727Z,11.65
2023-03-08T08:22:42.225Z,11.60
2023-03-08T08:25:11.310Z,11.71
2023-03-08T08:27:38.902Z,11.86
2023-03-08T08:30:07.153Z,11.74
2023-03-08T08:32:35.434Z,11.79
2023-03-08T08:35:02.950Z,11.56
2023-03-08T08:37:32.123Z,11.67
2023-03-08T08:39:59.867Z,11.64
2023-03-08T08:42:27.299Z,11.50
2023-03-08T08:44:55.823Z,11.59
2023-03-08T08:47:23.512Z,11.67
2023-03-08T08:49:51.981Z,11.77
2023-03-08T08:52:19.647Z,11.97
2023-03-08T08:54:47.301Z,12.05
2023-03-08T08:57:14.746Z,12.26
2023-03-08T08:59:42.159Z,12.53
2023-03-08T09:02:11.623Z,12.52
2023-03-08T09:04:39.172Z,12.40
2023-03-08T09:07:07.515Z,12.51
2023-03-08T09:09:35.299Z,12.53
2023-03-08T09:12:02.695Z,12.55
2023-03-08T09:14:30.154Z,12.46
2023-03-08T09:16:57.918Z,12.33
2023-03-08T09:19:25.581Z,12.45
2023-03-08T09:21:54.679Z,12.60
2023-03-08T09:24:22.314Z,12.53
2023-03-08T09:26:49.778Z,12.81
2023-03-08T09:29:17.202Z,12.71
2023-03-08T09:31:45.434Z,12.64
2023-03-08T09:34:14.884Z,12.58
2023-03-08T09:36:42.604Z,12.64
2023-03-08T09:39:12.011Z,12.78
2023-03-08T09:41:49.681Z,12.87
2023-03-08T09:44:30.525Z,12.87
2023-03-08T09:47:14.777Z,12.97
2023-03-08T09:49:44.634Z,13.08
2023-03-08T09:52:41.811Z,13.08
2023-03-08T09:55:20.603Z,13.28
2023-03-08T09:57:52.921Z,13.38
2023-03-08T10:00:23.561Z,13.36
2023-03-08T10:02:56.509Z,13.39
2023-03-08T10:05:29.772Z,13.37
2023-03-08T10:08:10.508Z,13.28
2023-03-08T10:11:02.160Z,13.44
2023-03-08T10:13:38.328Z,13.37
2023-03-08T10:16:28.449Z,13.33
2023-03-08T10:19:12.223Z,13.47
2023-03-08T10:21:41.869Z,13.45
2023-03-08T10:24:31.329Z,13.45
2023-03-08T10:27:22.779Z,13.58
2023-03-08T10:29:52.161Z,13.54
2023-03-08T10:32:20.451Z,13.70
2023-03-08T10:34:48.525Z,13.66
2023-03-08T10:37:16.478Z,13.62
2023-03-08T10:39:54.781Z,13.64
2023-03-08T10:42:25.380Z,13.72
2023-03-08T10:44:59.465Z,13.88
2023-03-08T10:47:28.583Z,13.85
2023-03-08T10:50:16.466Z,13.91
2023-03-08T10:52:45.448Z,13.79
2023-03-08T10:55:18.786Z,13.87
2023-03-08T10:57:54.575Z,14.10
2023-03-08T11:00:40.156Z,14.03
2023-03-08T11:03:20.098Z,14.18
2023-03-08T11:06:02.976Z,14.20
2023-03-08T11:08:41.643Z,14.14
2023-03-08T11:11:11.678Z,14.16
2023-03-08T11:13:46.784Z,14.08
2023-03-08T11:16:29.951Z,13.95
2023-03-08T11:19:42.622Z,14.11
2023-03-08T11:22:27.408Z,14.17
2023-03-08T11:25:35.252Z,14.17
2023-03-08T11:28:36.322Z,13.82
2023-03-08T11:31:13.386Z,13.97
2023-03-08T11:34:05.887Z,14.11
2023-03-08T11:36:42.927Z,14.21
2023-03-08T11:39:20.763Z,14.08
2023-03-08T11:42:12.480Z,14.19
2023-03-08T11:45:01.223Z,13.93
2023-03-08T11:47:38.339Z,13.87
2023-03-08T11:50:11.635Z,13.85
2023-03-08T11:52:46.455Z,13.97
2023-03-08T11:55:32.288Z,14.24
2023-03-08T11:58:18.876Z,14.39
2023-03-08T12:00:47.447Z,14.56
2023-03-08T12:03:18.448Z,14.56
2023-03-08T12:06:02.389Z,14.61
2023-03-08T12:08:41.725Z,14.63
2023-03-08T12:11:19.822Z,14.80
2023-03-08T12:13:52.774Z,14.66
2023-03-08T12:16:32.674Z,14.77
2023-03-08T12:19:23.597Z,14.60
2023-03-08T12:22:18.020Z,14.69
2023-03-08T12:24:51.293Z,14.69
2023-03-08T12:27:27.877Z,14.41
2023-03-08T12:30:01.555Z,14.35
2023-03-08T12:32:29.808Z,14.18
2023-03-08T12:35:04.518Z,14.19
2023-03-08T12:37:32.666Z,13.87
2023-03-08T12:40:27.336Z,13.97
2023-03-08T12:43:13.331Z,14.01
2023-03-08T12:45:43.227Z,13.82
2023-03-08T12:48:29.449Z,14.00
2023-03-08T12:51:01.489Z,14.05
2023-03-08T12:53:42.122Z,14.05
2023-03-08T12:56:09.870Z,14.18
2023-03-08T12:58:49.853Z,14.14
2023-03-08T13:01:39.552Z,14.15
2023-03-08T13:04:41.500Z,13.93
2023-03-08T13:07:33.237Z,14.13
2023-03-08T13:10:18.898Z,14.22
2023-03-08T13:13:35.313Z,14.52
2023-03-08T13:16:07.962Z,14.46
2023-03-08T13:18:41.970Z,14.34
2023-03-08T13:21:18.866Z,14.49
2023-03-08T13:23:56.325Z,14.34
2023-03-08T13:27:01.771Z,14.09
2023-03-08T13:29:32.420Z,14.34
2023-03-08T13:32:15.575Z,14.60
2023-03-08T13:34:46.297Z,14.50
2023-03-08T13:37:24.410Z,14.60
2023-03-08T13:39:54.159Z,14.43
2023-03-08T13:42:24.892Z,14.39
2023-03-08T13:44:53.969Z,14.33
2023-03-08T13:47:22.669Z,14.47
2023-03-08T13:49:51.904Z,14.58
2023-03-08T13:52:23.471Z,14.56
2023-03-08T13:54:54.175Z,14.69
2023-03-08T13:57:34.070Z,14.69
2023-03-08T14:00:19.784Z,14.67
2023-03-08T14:02:47.889Z,14.70
2023-03-08T14:05:22.731Z,14.75
2023-03-08T14:08:04.688Z,14.93
2023-03-08T14:10:37.288Z,14.70
2023-03-08T14:13:05.836Z,14.71
2023-03-08T14:15:35.643Z,14.91
2023-03-08T14:18:04.763Z,15.00
2023-03-08T14:20:32.732Z,14.75
2023-03-08T14:23:00.190Z,14.70
2023-03-08T14:25:32.036Z,14.73
2023-03-08T14:27:59.757Z,14.96
2023-03-08T14:30:29.633Z,15.04
2023-03-08T14:33:19.890Z,14.86
2023-03-08T14:35:57.657Z,14.76
2023-03-08T14:38:29.254Z,14.83
2023-03-08T14:40:57.518Z,14.59
2023-03-08T14:43:26.263Z,14.47
2023-03-08T14:45:59.767Z,14.45
2023-03-08T14:48:31.443Z,14.49
2023-03-08T14:50:58.763Z,14.58
2023-03-08T14:53:32.123Z,14.27
2023-03-08T14:56:01.714Z,14.14
2023-03-08T14:58:31.705Z,14.28
2023-03-08T15:01:01.411Z,14.46
2023-03-08T15:03:30.562Z,14.38
2023-03-08T15:05:58.354Z,14.26
2023-03-08T15:08:25.805Z,14.36
2023-03-08T15:10:53.760Z,14.46
2023-03-08T15:13:23.101Z,14.44
2023-03-08T15:15:51.117Z,14.36
2023-03-08T15:18:18.914Z,14.57
2023-03-08T15:20:49.359Z,14.48
2023-03-08T15:23:20.937Z,14.54
2023-03-08T15:25:48.798Z,14.45
2023-03-08T15:28:17.711Z,14.44
2023-03-08T15:30:45.079Z,14.48
2023-03-08T15:33:12.809Z,14.48
2023-03-08T15:35:40.744Z,14.29
2023-03-08T15:38:14.652Z,14.30
2023-03-08T15:40:42.402Z,14.24
2023-03-08T15:43:10.300Z,14.33
2023-03-08T15:45:37.809Z,14.24
2023-03-08T15:48:07.799Z,14.27
2023-03-08T15:50:36.498Z,14.36
2023-03-08T15:53:04.140Z,14.38
2023-03-08T15:55:32.196Z,14.19
2023-03-08T15:57:59.809Z,14.37
2023-03-08T16:00:27.881Z,14.15
2023-03-08T16:02:55.976Z,14.25
2023-03-08T16:05:25.064Z,14.37
2023-03-08T16:07:54.430Z,14.36
2023-03-08T16:10:22.823Z,14.16
2023-03-08T16:12:50.200Z,14.18
2023-03-08T16:15:17.671Z,14.20
2023-03-08T16:17:45.831Z,14.10
2023-03-08T16:20:14.388Z,14.25
2023-03-08T16:22:41.877Z,14.29
2023-03-08T16:25:10.045Z,14.32
2023-03-08T16:27:38.363Z,14.41
2023-03-08T16:30:06.331Z,14.46
2023-03-08T16:32:34.079Z,14.44
2023-03-08T16:35:01.629Z,14.40
2023-03-08T16:37:29.065Z,14.15
2023-03-08T16:39:59.123Z,14.42
2023-03-08T16:42:26.489Z,14.44
2023-03-08T16:44:55.308Z,14.33
2023-03-08T16:47:24.157Z,14.06
2023-03-08T16:49:51.684Z,14.10
2023-03-08T16:52:19.566Z,14.22
2023-03-08T16:54:47.281Z,14.47
2023-03-08T16:57:19.333Z,14.40
2023-03-08T16:59:47.773Z,14.19
2023-03-08T17:02:17.654Z,14.22
2023-03-08T17:04:45.416Z,14.44
2023-03-08T17:07:13.612Z,14.43
2023-03-08T17:09:41.240Z,14.46
2023-03-08T17:12:09.237Z,14.49
2023-03-08T17:14:36.999Z,14.48
2023-03-08T17:17:05.034Z,14.49
2023-03-08T17:19:32.639Z,14.54
2023-03-08T17:22:00.318Z,14.45
2023-03-08T17:24:30.465Z,14.36
2023-03-08T17:26:58.526Z,14.36
2023-03-08T17:29:27.610Z,14.29
2023-03-08T17:31:54.935Z,14.19
2023-03-08T17:34:23.081Z,14.38
2023-03-08T17:36:51.578Z,14.22
2023-03-08T17:39:19.554Z,14.14
2023-03-08T17:41:47.173Z,14.23
2023-03-08T17:44:15.093Z,14.19
2023-03-08T17:46:42.606Z,14.19
2023-03-08T17:49:11.971Z,14.19
2023-03-08T17:51:39.639Z,14.14
2023-03-08T17:54:07.428Z,14.35
2023-03-08T17:56:36.505Z,14.10
2023-03-08T17:59:04.253Z,14.25
2023-03-08T18:01:31.975Z,14.25
2023-03-08T18:04:00.364Z,14.22
2023-03-08T18:06:33.120Z,14.04
2023-03-08T18:09:03.923Z,14.23
2023-03-08T18:11:31.338Z,14.34
2023-03-08T18:13:58.668Z,14.32
2023-03-08T18:16:26.370Z,14.04
2023-03-08T18:18:53.799Z,14.07
2023-03-08T18:21:21.446Z,14.00
2023-03-08T18:23:49.247Z,14.00
2023-03-08T18:26:17.459Z,13.94
2023-03-08T18:28:44.886Z,14.03
2023-03-08T18:31:15.714Z,14.08
2023-03-08T18:33:44.081Z,13.81
2023-03-08T18:36:11.693Z,13.60
2023-03-08T18:38:39.416Z,13.64
2023-03-08T18:41:17.580Z,13.64
2023-03-08T18:43:45.359Z,13.66
2023-03-08T18:46:13.706Z,13.81
2023-03-08T18:48:42.139Z,13.80
2023-03-08T18:51:09.910Z,13.86
2023-03-08T18:53:37.874Z,13.77
2023-03-08T18:56:05.783Z,13.78
2023-03-08T18:58:34.044Z,13.65
2023-03-08T19:01:02.966Z,13.53
2023-03-08T19:03:30.624Z,13.46
2023-03-08T19:06:02.937Z,13.51
2023-03-08T19:08:31.235Z,13.00
2023-03-08T19:10:59.482Z,13.27
2023-03-08T19:13:26.848Z,13.07
2023-03-08T19:15:54.251Z,13.17
2023-03-08T19:18:23.552Z,13.12
2023-03-08T19:20:51.003Z,13.12
2023-03-08T19:23:18.336Z,13.22
2023-03-08T19:26:04.552Z,13.09
2023-03-08T19:28:32.034Z,12.86
2023-03-08T19:30:59.733Z,12.69
2023-03-08T19:33:31.622Z,12.60
2023-03-08T19:35:59.486Z,12.68
2023-03-08T19:38:27.327Z,12.80
2023-03-08T19:40:55.118Z,12.95
2023-03-08T19:43:22.481Z,12.98
2023-03-08T19:45:50.263Z,12.66
2023-03-08T19:48:17.714Z,12.81
2023-03-08T19:50:46.137Z,12.83
2023-03-08T19:53:13.764Z,12.89
2023-03-08T19:55:59.146Z,12.99
2023-03-08T19:58:26.830Z,12.78
2023-03-08T20:01:02.644Z,12.97
2023-03-08T20:03:30.591Z,12.76
2023-03-08T20:05:58.309Z,12.55
2023-03-08T20:08:26.477Z,12.63
2023-03-08T20:10:54.219Z,12.56
2023-03-08T20:13:21.617Z,12.58
2023-03-08T20:15:49.225Z,12.72
2023-03-08T20:18:17.021Z,12.88
2023-03-08T20:20:45.044Z,12.87
2023-03-08T20:23:12.444Z,13.11
2023-03-08T20:25:43.477Z,13.04
2023-03-08T20:28:11.182Z,13.08
2023-03-08T20:30:39.235Z,13.37
2023-03-08T20:33:07.012Z,13.52
2023-03-08T20:35:34.413Z,13.56
2023-03-08T20:38:01.796Z,13.67
2023-03-08T20:40:29.527Z,13.52
2023-03-08T20:43:00.827Z,13.48
2023-03-08T20:45:28.782Z,13.39
2023-03-08T20:47:57.477Z,13.30
2023-03-08T20:50:27.012Z,13.21
2023-03-08T20:52:54.435Z,13.24
2023-03-08T20:55:22.093Z,13.11
2023-03-08T20:57:51.142Z,13.18
2023-03-08T21:00:18.568Z,13.12
2023-03-08T21:02:46.795Z,13.18
2023-03-08T21:05:14.247Z,13.21
2023-03-08T21:07:41.684Z,13.21
2023-03-08T21:10:09.860Z,13.18
2023-03-08T21:12:39.059Z,13.02
2023-03-08T21:15:07.378Z,13.09
2023-03-08T21:17:37.840Z,12.81
2023-03-08T21:20:06.132Z,12.87
2023-03-08T21:22:33.643Z,12.84
2023-03-08T21:25:01.331Z,12.77
2023-03-08T21:27:28.685Z,12.79
2023-03-08T21:29:56.087Z,12.66
2023-03-08T21:32:24.540Z,12.80
2023-03-08T21:34:54.055Z,12.80
2023-03-08T21:37:21.441Z,12.87
2023-03-08T21:39:49.263Z,12.73
2023-03-08T21:42:16.671Z,12.76
2023-03-08T21:44:44.155Z,12.97
2023-03-08T21:47:12.001Z,12.78
2023-03-08T21:49:39.709Z,12.88
2023-03-08T21:52:07.327Z,12.74
2023-03-08T21:54:35.022Z,12.82
2023-03-08T21:57:02.665Z,13.02
2023-03-08T21:59:30.476Z,13.15
2023-03-08T22:01:58.805Z,13.12
2023-03-08T22:04:27.252Z,13.08
2023-03-08T22:06:55.651Z,12.87
2023-03-08T22:09:26.518Z,12.68
2023-03-08T22:11:54.423Z,13.01
2023-03-08T22:14:21.777Z,13.04
2023-03-08T22:16:49.424Z,13.13
2023-03-08T22:19:17.983Z,13.02
2023-03-08T22:21:45.418Z,13.17
2023-03-08T22:24:12.914Z,13.22
2023-03-08T22:26:40.531Z,13.21
2023-03-08T22:29:07.931Z,13.27
2023-03-08T22:31:35.484Z,13.17
2023-03-08T22:34:03.466Z,13.21
2023-03-08T22:36:30.842Z,13.25
2023-03-08T22:38:58.221Z,13.31
2023-03-08T22:41:27.373Z,13.36
2023-03-08T22:43:54.732Z,13.22
2023-03-08T22:46:26.988Z,12.98
2023-03-08T22:48:56.533Z,13.10
2023-03-08T22:51:24.825Z,13.31
2023-03-08T22:53:52.422Z,13.31
2023-03-08T22:56:30.195Z,13.14
2023-03-08T22:58:58.147Z,13.20
2023-03-08T23:01:26.414Z,12.95
2023-03-08T23:03:56.766Z,13.06
2023-03-08T23:06:27.985Z,13.23
2023-03-08T23:08:57.222Z,13.20
2023-03-08T23:11:25.044Z,13.27
2023-03-08T23:13:52.737Z,13.15
2023-03-08T23:16:21.075Z,13.17
2023-03-08T23:18:50.685Z,13.31
2023-03-08T23:21:20.301Z,13.20
2023-03-08T23:23:48.127Z,13.14
2023-03-08T23:26:21.257Z,13.05
2023-03-08T23:28:48.890Z,13.27
2023-03-08T23:31:21.707Z,13.24
2023-03-08T23:33:50.133Z,13.25
2023-03-08T23:36:20.041Z,13.37
2023-03-08T23:38:48.114Z,13.47
2023-03-08T23:41:16.753Z,13.27
2023-03-08T23:43:44.138Z,13.35
2023-03-08T23:46:16.943Z,13.26
2023-03-08T23:48:46.062Z,13.29
2023-03-08T23:51:18.452Z,13.34
2023-03-08T23:53:50.989Z,13.48
2023-03-08T23:56:26.511Z,13.42
2023-03-08T23:58:58.897Z,13.40
